createdAt,value
2023-06-16T00:00:12.865Z,73.03
2023-06-16T00:03:00.971Z,72.91
2023-06-16T00:05:32.372Z,72.56
2023-06-16T00:08:02.011Z,72.79
2023-06-16T00:10:31.326Z,73.02
2023-06-16T00:12:59.280Z,72.75
2023-06-16T00:15:27.238Z,73.84
2023-06-16T00:17:58.178Z,73.19
2023-06-16T00:20:28.121Z,73.35
2023-06-16T00:22:56.195Z,73.51
2023-06-16T00:25:24.440Z,73.14
2023-06-16T00:27:52.302Z,73.57
2023-06-16T00:30:20.633Z,73.32
2023-06-16T00:32:48.916Z,74.20
2023-06-16T00:35:16.920Z,74.43
2023-06-16T00:37:44.783Z,74.49
2023-06-16T00:40:12.764Z,74.00
2023-06-16T00:42:40.757Z,74.87
2023-06-16T00:45:09.578Z,74.88
2023-06-16T00:47:37.732Z,73.80
2023-06-16T00:50:07.011Z,74.15
2023-06-16T00:52:38.884Z,74.39
2023-06-16T00:55:10.210Z,73.99
2023-06-16T00:57:40.426Z,74.40
2023-06-16T01:00:12.916Z,74.20
2023-06-16T01:02:41.359Z,74.29
2023-06-16T01:05:10.163Z,74.15
2023-06-16T01:08:00.572Z,74.92
2023-06-16T01:10:43.579Z,74.57
2023-06-16T01:13:30.014Z,74.66
2023-06-16T01:16:03.166Z,73.91
2023-06-16T01:18:33.909Z,75.10
2023-06-16T01:21:39.184Z,75.02
2023-06-16T01:24:10.079Z,75.80
2023-06-16T01:26:45.635Z,75.13
2023-06-16T01:29:15.268Z,74.80
2023-06-16T01:31:44.560Z,75.08
2023-06-16T01:34:14.757Z,76.31
2023-06-16T01:36:44.266Z,75.84
2023-06-16T01:39:15.192Z,75.39
2023-06-16T01:41:44.212Z,75.21
2023-06-16T01:44:12.359Z,75.92
2023-06-16T01:46:42.542Z,77.00
2023-06-16T01:49:11.146Z,77.36
2023-06-16T01:51:39.441Z,77.85
2023-06-16T01:54:07.503Z,76.53
2023-06-16T01:56:35.690Z,75.99
2023-06-16T01:59:03.726Z,76.24
2023-06-16T02:01:35.320Z,77.00
2023-06-16T02:04:16.786Z,76.70
2023-06-16T02:06:52.862Z,76.60
2023-06-16T02:09:23.593Z,76.10
2023-06-16T02:11:53.504Z,76.15
2023-06-16T02:14:23.012Z,76.13
2023-06-16T02:16:52.571Z,76.19
2023-06-16T02:19:20.614Z,76.07
2023-06-16T02:21:48.664Z,76.26
2023-06-16T02:24:16.892Z,76.25
2023-06-16T02:26:44.895Z,77.02
2023-06-16T02:29:12.766Z,76.76
2023-06-16T02:31:40.843Z,76.88
2023-06-16T02:34:08.714Z,76.43
2023-06-16T02:36:38.092Z,76.29
2023-06-16T02:39:06.289Z,76.33
2023-06-16T02:41:35.644Z,76.46
2023-06-16T02:44:04.467Z,76.83
2023-06-16T02:46:32.347Z,76.95
2023-06-16T02:49:00.298Z,77.02
2023-06-16T02:51:28.361Z,77.91
2023-06-16T02:53:56.233Z,77.11
2023-06-16T02:56:25.371Z,77.92
2023-06-16T02:58:53.297Z,77.29
2023-06-16T03:01:22.878Z,77.27
2023-06-16T03:03:53.396Z,77.12
2023-06-16T03:06:21.930Z,76.83
2023-06-16T03:08:49.794Z,77.15
2023-06-16T03:11:17.812Z,77.42
2023-06-16T03:13:46.429Z,78.12
2023-06-16T03:16:14.228Z,77.83
2023-06-16T03:18:42.187Z,77.47
2023-06-16T03:21:10.147Z,77.45
2023-06-16T03:23:38.116Z,77.15
2023-06-16T03:26:05.978Z,76.69
2023-06-16T03:28:33.949Z,77.15
2023-06-16T03:31:01.812Z,77.16
2023-06-16T03:33:32.752Z,77.25
2023-06-16T03:36:00.722Z,78.30
2023-06-16T03:38:28.589Z,77.71
2023-06-16T03:40:56.879Z,77.68
2023-06-16T03:43:24.730Z,78.31
2023-06-16T03:45:52.689Z,77.88
2023-06-16T03:48:20.770Z,77.72
2023-06-16T03:50:48.837Z,77.89
2023-06-16T03:53:17.346Z,77.94
2023-06-16T03:55:45.611Z,78.36
2023-06-16T03:58:16.603Z,78.34
2023-06-16T04:00:45.000Z,78.25
2023-06-16T04:03:13.459Z,78.18
2023-06-16T04:05:41.495Z,78.18
2023-06-16T04:08:09.461Z,77.95
2023-06-16T04:10:37.459Z,78.30
2023-06-16T04:13:05.392Z,78.05
2023-06-16T04:15:33.362Z,78.34
2023-06-16T04:18:01.443Z,78.33
2023-06-16T04:20:29.509Z,78.18
2023-06-16T04:22:57.467Z,78.46
2023-06-16T04:25:25.907Z,78.20
2023-06-16T04:27:53.815Z,77.77
2023-06-16T04:30:25.616Z,77.82
2023-06-16T04:32:56.565Z,77.89
2023-06-16T04:35:25.538Z,77.97
2023-06-16T04:37:53.417Z,77.77
2023-06-16T04:40:21.482Z,77.61
2023-06-16T04:42:49.932Z,77.66
2023-06-16T04:45:18.755Z,77.45
2023-06-16T04:47:47.124Z,77.50
2023-06-16T04:50:17.210Z,77.30
2023-06-16T04:52:47.870Z,78.06
2023-06-16T04:55:19.181Z,77.82
2023-06-16T04:57:47.045Z,77.55
2023-06-16T05:00:15.265Z,77.33
2023-06-16T05:02:43.619Z,77.49
2023-06-16T05:05:12.441Z,77.40
2023-06-16T05:07:40.510Z,77.44
2023-06-16T05:10:09.485Z,77.16
2023-06-16T05:12:37.470Z,76.99
2023-06-16T05:15:06.362Z,77.00
2023-06-16T05:17:34.499Z,76.79
2023-06-16T05:20:02.799Z,76.86
2023-06-16T05:22:30.684Z,76.87
2023-06-16T05:24:59.032Z,76.77
2023-06-16T05:27:27.319Z,76.78
2023-06-16T05:29:58.487Z,76.54
2023-06-16T05:32:28.704Z,76.44
2023-06-16T05:34:57.863Z,76.28
2023-06-16T05:37:25.751Z,76.30
2023-06-16T05:39:53.710Z,76.30
2023-06-16T05:42:21.714Z,75.95
2023-06-16T05:44:49.677Z,75.94
2023-06-16T05:47:17.718Z,75.99
2023-06-16T05:49:45.619Z,75.57
2023-06-16T05:52:13.545Z,75.70
2023-06-16T05:54:41.753Z,75.63
2023-06-16T05:57:10.107Z,75.44
2023-06-16T05:59:38.067Z,75.42
2023-06-16T06:02:07.004Z,75.28
2023-06-16T06:04:35.280Z,75.25
2023-06-16T06:07:03.814Z,74.98
2023-06-16T06:09:31.885Z,74.93
2023-06-16T06:11:59.756Z,74.83
2023-06-16T06:14:27.714Z,73.95
2023-06-16T06:16:55.623Z,73.80
2023-06-16T06:19:25.418Z,73.49
2023-06-16T06:21:53.320Z,73.54
2023-06-16T06:24:22.301Z,73.78
2023-06-16T06:26:50.627Z,73.45
2023-06-16T06:29:18.594Z,72.67
2023-06-16T06:31:46.492Z,72.68
2023-06-16T06:34:14.431Z,72.34
2023-06-16T06:36:42.327Z,72.15
2023-06-16T06:39:10.393Z,72.21
2023-06-16T06:41:38.546Z,72.27
2023-06-16T06:44:06.402Z,71.61
2023-06-16T06:46:34.494Z,71.43
2023-06-16T06:49:02.544Z,71.24
2023-06-16T06:51:30.435Z,70.92
2023-06-16T06:53:58.482Z,71.10
2023-06-16T06:56:27.173Z,70.29
2023-06-16T06:58:55.064Z,70.15
2023-06-16T07:01:22.994Z,70.27
2023-06-16T07:03:51.208Z,69.90
2023-06-16T07:06:19.345Z,69.57
2023-06-16T07:08:47.222Z,69.54
2023-06-16T07:11:15.072Z,68.96
2023-06-16T07:13:43.049Z,67.58
2023-06-16T07:16:11.180Z,66.84
2023-06-16T07:18:40.008Z,67.10
2023-06-16T07:21:08.079Z,67.28
2023-06-16T07:23:36.254Z,66.62
2023-06-16T07:26:04.226Z,66.61
2023-06-16T07:28:32.284Z,66.14
2023-06-16T07:31:00.263Z,65.28
2023-06-16T07:33:28.222Z,63.61
2023-06-16T07:35:56.208Z,63.34
2023-06-16T07:38:24.498Z,64.09
2023-06-16T07:40:52.638Z,63.38
2023-06-16T07:43:22.521Z,63.85
2023-06-16T07:45:52.641Z,62.81
2023-06-16T07:48:20.676Z,62.79
2023-06-16T07:50:49.123Z,63.05
2023-06-16T07:53:17.293Z,63.05
2023-06-16T07:55:45.261Z,63.42
2023-06-16T07:58:13.453Z,63.55
2023-06-16T08:00:41.507Z,63.42
2023-06-16T08:03:09.805Z,63.37
2023-06-16T08:05:37.979Z,62.84
2023-06-16T08:08:06.243Z,62.52
2023-06-16T08:10:34.206Z,62.60
2023-06-16T08:13:02.274Z,61.16
2023-06-16T08:15:30.231Z,62.16
2023-06-16T08:17:58.177Z,61.98
2023-06-16T08:20:27.061Z,62.37
2023-06-16T08:22:55.060Z,62.45
2023-06-16T08:25:23.272Z,62.32
2023-06-16T08:27:51.606Z,62.31
2023-06-16T08:30:20.310Z,61.95
2023-06-16T08:32:48.418Z,62.18
2023-06-16T08:35:16.633Z,62.05
2023-06-16T08:37:44.607Z,62.01
2023-06-16T08:40:13.499Z,61.94
2023-06-16T08:42:42.277Z,61.58
2023-06-16T08:45:11.378Z,61.02
2023-06-16T08:47:39.514Z,61.27
2023-06-16T08:50:09.453Z,61.30
2023-06-16T08:52:44.517Z,61.14
2023-06-16T08:55:15.642Z,60.78
2023-06-16T08:57:53.049Z,60.80
2023-06-16T09:00:21.836Z,60.55
2023-06-16T09:02:51.659Z,59.98
2023-06-16T09:05:20.674Z,59.85
2023-06-16T09:07:49.213Z,59.54
2023-06-16T09:10:18.433Z,59.67
2023-06-16T09:12:52.531Z,59.55
2023-06-16T09:15:21.251Z,59.68
2023-06-16T09:17:50.145Z,59.38
2023-06-16T09:20:19.791Z,59.44
2023-06-16T09:22:58.560Z,58.80
2023-06-16T09:25:27.003Z,59.59
2023-06-16T09:27:57.782Z,59.12
2023-06-16T09:30:38.584Z,59.36
2023-06-16T09:33:07.604Z,58.83
2023-06-16T09:35:35.580Z,58.93
2023-06-16T09:38:05.495Z,58.79
2023-06-16T09:40:34.801Z,58.82
2023-06-16T09:43:08.586Z,58.69
2023-06-16T09:45:36.827Z,58.73
2023-06-16T09:48:07.138Z,58.60
2023-06-16T09:50:35.238Z,58.58
2023-06-16T09:53:07.725Z,58.35
2023-06-16T09:55:40.448Z,58.06
2023-06-16T09:58:08.306Z,57.96
2023-06-16T10:00:36.181Z,58.00
2023-06-16T10:03:08.958Z,57.98
2023-06-16T10:05:38.921Z,57.58
2023-06-16T10:08:08.312Z,57.36
2023-06-16T10:10:42.741Z,56.53
2023-06-16T10:13:12.573Z,56.68
2023-06-16T10:15:43.544Z,56.41
2023-06-16T10:18:15.594Z,56.13
2023-06-16T10:20:44.276Z,56.41
2023-06-16T10:23:13.118Z,55.56
2023-06-16T10:25:42.163Z,54.03
2023-06-16T10:28:14.976Z,54.00
2023-06-16T10:30:45.007Z,52.87
2023-06-16T10:33:19.286Z,53.05
2023-06-16T10:36:03.763Z,53.93
2023-06-16T10:38:43.493Z,53.77
2023-06-16T10:41:16.448Z,51.96
2023-06-16T10:43:44.805Z,51.18
2023-06-16T10:46:16.869Z,51.81
2023-06-16T10:49:11.793Z,51.98
2023-06-16T10:51:43.132Z,51.65
2023-06-16T10:54:11.265Z,51.06
2023-06-16T10:57:11.455Z,49.49
2023-06-16T11:00:13.064Z,50.39
2023-06-16T11:02:53.581Z,50.52
2023-06-16T11:05:25.097Z,50.33
2023-06-16T11:08:09.621Z,49.36
2023-06-16T11:10:54.989Z,50.06
2023-06-16T11:13:24.742Z,49.19
2023-06-16T11:15:56.671Z,49.49
2023-06-16T11:18:26.469Z,48.57
2023-06-16T11:20:58.894Z,48.37
2023-06-16T11:23:27.333Z,48.92
2023-06-16T11:26:19.864Z,48.48
2023-06-16T11:28:49.723Z,47.78
2023-06-16T11:31:20.702Z,48.14
2023-06-16T11:33:49.234Z,47.84
2023-06-16T11:36:23.629Z,47.60
2023-06-16T11:38:54.265Z,47.31
2023-06-16T11:41:26.667Z,47.06
2023-06-16T11:43:56.229Z,47.61
2023-06-16T11:46:26.102Z,47.16
2023-06-16T11:48:55.367Z,47.08
2023-06-16T11:51:24.888Z,47.66
2023-06-16T11:53:54.859Z,47.64
2023-06-16T11:56:25.883Z,46.10
2023-06-16T11:58:54.830Z,47.12
2023-06-16T12:01:23.729Z,46.45
2023-06-16T12:04:04.404Z,45.87
2023-06-16T12:06:37.358Z,46.60
2023-06-16T12:09:05.575Z,45.57
2023-06-16T12:11:35.703Z,46.40
2023-06-16T12:14:03.918Z,46.23
2023-06-16T12:16:32.215Z,45.73
2023-06-16T12:19:01.125Z,46.49
2023-06-16T12:21:30.174Z,46.08
2023-06-16T12:24:00.524Z,44.93
2023-06-16T12:26:33.583Z,45.00
2023-06-16T12:29:09.036Z,45.51
2023-06-16T12:31:37.411Z,45.22
2023-06-16T12:34:05.473Z,45.34
2023-06-16T12:36:41.115Z,44.45
2023-06-16T12:39:16.236Z,44.87
2023-06-16T12:41:59.892Z,44.64
2023-06-16T12:44:47.376Z,44.37
2023-06-16T12:47:18.141Z,43.88
2023-06-16T12:49:46.367Z,44.12
2023-06-16T12:52:15.828Z,44.52
2023-06-16T12:54:44.460Z,44.57
2023-06-16T12:57:14.877Z,43.86
2023-06-16T12:59:43.427Z,43.94
2023-06-16T13:02:11.798Z,43.11
2023-06-16T13:04:40.023Z,43.50
2023-06-16T13:07:08.139Z,43.32
2023-06-16T13:09:36.320Z,41.61
2023-06-16T13:12:08.573Z,42.98
2023-06-16T13:14:37.601Z,43.24
2023-06-16T13:17:06.713Z,42.93
2023-06-16T13:19:34.806Z,42.45
2023-06-16T13:22:03.042Z,42.58
2023-06-16T13:24:31.623Z,43.15
2023-06-16T13:27:00.174Z,42.36
2023-06-16T13:29:28.358Z,42.55
2023-06-16T13:31:56.516Z,42.72
2023-06-16T13:34:24.693Z,43.10
2023-06-16T13:36:52.659Z,43.06
2023-06-16T13:39:20.736Z,43.05
2023-06-16T13:41:48.793Z,42.59
2023-06-16T13:44:16.978Z,42.34
2023-06-16T13:46:45.042Z,42.76
2023-06-16T13:49:13.494Z,42.68
2023-06-16T13:51:42.822Z,42.53
2023-06-16T13:54:12.665Z,42.48
2023-06-16T13:56:43.151Z,42.67
2023-06-16T13:59:11.359Z,42.70
2023-06-16T14:01:39.308Z,42.58
2023-06-16T14:04:07.379Z,42.69
2023-06-16T14:06:35.480Z,42.28
2023-06-16T14:09:03.717Z,42.23
2023-06-16T14:11:31.910Z,42.41
2023-06-16T14:14:00.526Z,41.83
2023-06-16T14:16:28.549Z,42.24
2023-06-16T14:18:56.717Z,42.32
2023-06-16T14:21:26.971Z,41.64
2023-06-16T14:23:55.035Z,41.55
2023-06-16T14:26:24.129Z,41.51
2023-06-16T14:28:52.490Z,41.65
2023-06-16T14:31:21.491Z,40.76
2023-06-16T14:33:51.242Z,40.50
2023-06-16T14:36:19.263Z,40.59
2023-06-16T14:38:47.520Z,40.87
2023-06-16T14:41:15.392Z,41.08
2023-06-16T14:43:43.298Z,40.80
2023-06-16T14:46:11.194Z,41.10
2023-06-16T14:48:39.688Z,40.96
2023-06-16T14:51:07.668Z,41.08
2023-06-16T14:53:36.790Z,41.27
2023-06-16T14:56:04.728Z,41.32
2023-06-16T14:58:33.835Z,41.41
2023-06-16T15:01:01.937Z,41.32
2023-06-16T15:03:29.977Z,41.13
2023-06-16T15:05:58.111Z,41.02
2023-06-16T15:08:26.213Z,40.81
2023-06-16T15:10:54.187Z,41.06
2023-06-16T15:13:22.354Z,41.01
2023-06-16T15:15:51.128Z,40.48
2023-06-16T15:18:19.449Z,40.21
2023-06-16T15:20:47.384Z,40.19
2023-06-16T15:23:16.273Z,40.45
2023-06-16T15:25:44.136Z,40.02
2023-06-16T15:28:13.293Z,40.24
2023-06-16T15:30:42.481Z,40.20
2023-06-16T15:33:10.703Z,39.35
2023-06-16T15:35:38.891Z,38.99
2023-06-16T15:38:08.820Z,38.97
2023-06-16T15:40:38.606Z,39.18
2023-06-16T15:43:07.617Z,39.29
2023-06-16T15:45:36.520Z,39.49
2023-06-16T15:48:05.977Z,39.52
2023-06-16T15:50:34.464Z,39.64
2023-06-16T15:53:04.695Z,39.68
2023-06-16T15:55:33.168Z,39.77
2023-06-16T15:58:01.761Z,40.12
2023-06-16T16:00:30.025Z,40.15
2023-06-16T16:02:58.129Z,40.37
2023-06-16T16:05:26.689Z,40.39
2023-06-16T16:07:55.323Z,40.46
2023-06-16T16:10:23.944Z,40.61
2023-06-16T16:12:51.912Z,40.65
2023-06-16T16:15:20.152Z,40.75
2023-06-16T16:17:48.444Z,40.92
2023-06-16T16:20:16.525Z,41.11
2023-06-16T16:22:44.499Z,41.36
2023-06-16T16:25:12.472Z,41.55
2023-06-16T16:27:40.546Z,41.42
2023-06-16T16:30:09.542Z,41.76
2023-06-16T16:32:39.064Z,41.81
2023-06-16T16:35:10.475Z,42.12
2023-06-16T16:37:38.294Z,42.66
2023-06-16T16:40:07.188Z,42.53
2023-06-16T16:42:35.207Z,43.00
2023-06-16T16:45:03.593Z,43.28
2023-06-16T16:47:31.686Z,43.45
2023-06-16T16:49:59.563Z,43.39
2023-06-16T16:52:27.387Z,43.71
2023-06-16T16:54:55.269Z,43.54
2023-06-16T16:57:23.225Z,43.92
2023-06-16T16:59:51.092Z,44.21
2023-06-16T17:02:19.051Z,44.59
2023-06-16T17:04:47.065Z,44.51
2023-06-16T17:07:14.998Z,44.42
2023-06-16T17:09:43.078Z,44.97
2023-06-16T17:12:11.744Z,44.91
2023-06-16T17:14:39.964Z,44.74
2023-06-16T17:17:08.797Z,45.01
2023-06-16T17:19:37.136Z,45.19
2023-06-16T17:22:06.875Z,45.70
2023-06-16T17:24:34.900Z,45.55
2023-06-16T17:27:02.832Z,45.70
2023-06-16T17:29:30.749Z,46.43
2023-06-16T17:31:58.976Z,46.04
2023-06-16T17:34:26.889Z,46.20
2023-06-16T17:36:58.973Z,46.56
2023-06-16T17:39:26.881Z,46.79
2023-06-16T17:41:55.713Z,46.77
2023-06-16T17:44:27.126Z,46.80
2023-06-16T17:46:55.181Z,47.06
2023-06-16T17:49:24.654Z,47.20
2023-06-16T17:51:52.566Z,47.33
2023-06-16T17:54:20.758Z,47.29
2023-06-16T17:56:48.994Z,47.43
2023-06-16T17:59:16.989Z,47.67
2023-06-16T18:01:45.032Z,47.99
2023-06-16T18:04:13.112Z,48.38
2023-06-16T18:06:41.481Z,48.83
2023-06-16T18:09:09.754Z,48.80
2023-06-16T18:11:37.757Z,48.75
2023-06-16T18:14:05.757Z,49.09
2023-06-16T18:16:33.811Z,49.09
2023-06-16T18:19:03.885Z,49.52
2023-06-16T18:21:31.778Z,49.34
2023-06-16T18:23:59.725Z,50.00
2023-06-16T18:26:27.781Z,49.97
2023-06-16T18:28:55.987Z,50.15
2023-06-16T18:31:24.517Z,50.43
2023-06-16T18:33:52.626Z,50.56
2023-06-16T18:36:21.015Z,51.22
2023-06-16T18:38:50.720Z,51.28
2023-06-16T18:41:19.743Z,51.86
2023-06-16T18:43:48.386Z,51.87
2023-06-16T18:46:16.755Z,52.66
2023-06-16T18:48:44.723Z,52.97
2023-06-16T18:51:13.419Z,53.09
2023-06-16T18:53:41.511Z,52.38
2023-06-16T18:56:10.063Z,52.53
2023-06-16T18:58:38.267Z,52.56
2023-06-16T19:01:06.228Z,52.54
2023-06-16T19:03:34.585Z,53.21
2023-06-16T19:06:02.618Z,53.56
2023-06-16T19:08:30.445Z,53.24
2023-06-16T19:10:58.973Z,53.04
2023-06-16T19:13:27.186Z,53.53
2023-06-16T19:15:55.056Z,54.07
2023-06-16T19:18:23.127Z,54.16
2023-06-16T19:20:51.824Z,53.45
2023-06-16T19:23:20.542Z,53.78
2023-06-16T19:25:48.912Z,54.34
2023-06-16T19:28:20.501Z,54.01
2023-06-16T19:30:48.492Z,54.00
2023-06-16T19:33:17.493Z,54.66
2023-06-16T19:35:45.497Z,55.09
2023-06-16T19:38:13.414Z,54.81
2023-06-16T19:40:41.247Z,55.47
2023-06-16T19:43:09.039Z,55.05
2023-06-16T19:45:37.002Z,55.43
2023-06-16T19:48:08.285Z,55.66
2023-06-16T19:50:36.304Z,55.70
2023-06-16T19:53:04.322Z,55.76
2023-06-16T19:55:44.944Z,55.67
2023-06-16T19:58:19.063Z,56.25
2023-06-16T20:00:47.541Z,56.01
2023-06-16T20:03:16.313Z,56.66
2023-06-16T20:05:44.710Z,56.41
2023-06-16T20:08:14.718Z,56.87
2023-06-16T20:10:43.821Z,56.77
2023-06-16T20:13:12.034Z,57.38
2023-06-16T20:15:40.009Z,57.41
2023-06-16T20:18:08.070Z,57.39
2023-06-16T20:20:36.112Z,57.45
2023-06-16T20:23:04.791Z,57.41
2023-06-16T20:25:32.678Z,57.64
2023-06-16T20:28:00.548Z,57.99
2023-06-16T20:30:28.414Z,58.11
2023-06-16T20:32:57.858Z,57.85
2023-06-16T20:35:27.379Z,58.05
2023-06-16T20:37:58.021Z,58.48
2023-06-16T20:40:28.487Z,58.80
2023-06-16T20:42:57.584Z,59.12
2023-06-16T20:45:26.291Z,58.48
2023-06-16T20:47:54.815Z,58.69
2023-06-16T20:50:28.481Z,58.52
2023-06-16T20:52:57.914Z,58.99
2023-06-16T20:55:26.737Z,59.05
2023-06-16T20:57:57.942Z,59.13
2023-06-16T21:00:28.962Z,59.42
2023-06-16T21:02:57.190Z,59.68
2023-06-16T21:05:25.429Z,59.29
2023-06-16T21:07:54.087Z,59.37
2023-06-16T21:10:22.302Z,59.34
2023-06-16T21:12:50.520Z,59.85
2023-06-16T21:15:19.012Z,59.49
2023-06-16T21:17:49.131Z,59.99
2023-06-16T21:20:21.729Z,59.86
2023-06-16T21:22:52.194Z,59.67
2023-06-16T21:25:20.664Z,60.12
2023-06-16T21:27:48.610Z,60.24
2023-06-16T21:30:16.813Z,60.14
2023-06-16T21:32:44.921Z,60.47
2023-06-16T21:35:12.921Z,60.59
2023-06-16T21:37:41.931Z,60.62
2023-06-16T21:40:11.985Z,61.13
2023-06-16T21:42:44.258Z,61.29
2023-06-16T21:45:14.822Z,61.04
2023-06-16T21:47:42.754Z,61.20
2023-06-16T21:50:10.757Z,61.20
2023-06-16T21:52:38.836Z,61.72
2023-06-16T21:55:08.035Z,61.28
2023-06-16T21:57:36.968Z,61.84
2023-06-16T22:00:12.621Z,61.79
2023-06-16T22:02:40.952Z,61.52
2023-06-16T22:05:10.835Z,61.50
2023-06-16T22:07:40.376Z,61.64
2023-06-16T22:10:10.286Z,62.13
2023-06-16T22:12:38.448Z,62.14
2023-06-16T22:15:07.273Z,61.51
2023-06-16T22:17:35.381Z,61.91
2023-06-16T22:20:07.329Z,62.70
2023-06-16T22:22:35.452Z,62.59
2023-06-16T22:25:03.491Z,62.53
2023-06-16T22:27:31.575Z,62.69
2023-06-16T22:30:00.416Z,63.03
2023-06-16T22:32:29.066Z,62.98
2023-06-16T22:34:56.932Z,63.15
2023-06-16T22:37:24.737Z,62.62
2023-06-16T22:39:52.640Z,62.92
2023-06-16T22:42:20.550Z,63.29
2023-06-16T22:44:48.442Z,62.92
2023-06-16T22:47:17.544Z,63.28
2023-06-16T22:49:45.465Z,63.76
2023-06-16T22:52:13.556Z,63.36
2023-06-16T22:54:41.495Z,63.69
2023-06-16T22:57:09.412Z,64.05
2023-06-16T22:59:37.423Z,64.07
2023-06-16T23:02:05.456Z,64.43
2023-06-16T23:04:33.589Z,64.38
2023-06-16T23:07:02.660Z,64.55
2023-06-16T23:09:30.452Z,64.85
2023-06-16T23:11:58.426Z,65.05
2023-06-16T23:14:26.397Z,64.94
2023-06-16T23:16:54.343Z,65.32
2023-06-16T23:19:22.216Z,66.92
2023-06-16T23:21:50.828Z,65.58
2023-06-16T23:24:19.792Z,66.12
2023-06-16T23:26:48.267Z,66.61
2023-06-16T23:29:17.307Z,66.66
2023-06-16T23:31:48.194Z,66.63
2023-06-16T23:34:16.881Z,67.40
2023-06-16T23:36:45.269Z,67.48
2023-06-16T23:39:13.222Z,67.05
2023-06-16T23:41:41.204Z,67.61
2023-06-16T23:44:09.671Z,66.74
2023-06-16T23:46:37.600Z,67.25
2023-06-16T23:49:05.917Z,67.66
2023-06-16T23:51:33.879Z,66.85
2023-06-16T23:54:01.855Z,67.52
2023-06-16T23:56:30.028Z,67.24
2023-06-16T23:58:57.822Z,68.09
